createdAt,value
2022-09-02T00:00:14.034Z,1.85
2022-09-02T00:01:21.202Z,1.80
2022-09-02T00:02:23.319Z,1.67
2022-09-02T00:03:28.209Z,2.00
2022-09-02T00:04:29.883Z,1.80
2022-09-02T00:05:31.790Z,2.05
2022-09-02T00:06:34.337Z,2.00
2022-09-02T00:07:39.220Z,1.70
2022-09-02T00:08:44.089Z,1.75
2022-09-02T00:09:45.748Z,1.65
2022-09-02T00:10:47.775Z,1.80
2022-09-02T00:11:57.052Z,1.80
2022-09-02T00:12:59.245Z,1.85
2022-09-02T00:14:04.476Z,1.63
2022-09-02T00:15:06.942Z,1.77
2022-09-02T00:16:10.937Z,1.90
2022-09-02T00:17:13.006Z,2.13
2022-09-02T00:18:18.271Z,2.00
2022-09-02T00:19:25.767Z,1.80
2022-09-02T00:20:29.846Z,1.75
2022-09-02T00:21:34.499Z,2.25
2022-09-02T00:22:39.216Z,1.92
2022-09-02T00:23:51.287Z,1.88
2022-09-02T00:24:53.104Z,1.67
2022-09-02T00:25:54.668Z,1.90
2022-09-02T00:26:57.017Z,1.98
2022-09-02T00:27:58.837Z,1.80
2022-09-02T00:29:01.682Z,2.00
2022-09-02T00:31:06.392Z,1.60
2022-09-02T00:32:08.349Z,1.63
2022-09-02T00:33:11.482Z,1.80
2022-09-02T00:34:12.951Z,1.80
2022-09-02T00:35:14.464Z,1.63
2022-09-02T00:36:16.356Z,1.92
2022-09-02T00:37:18.882Z,1.65
2022-09-02T00:38:20.685Z,1.77
2022-09-02T00:39:22.653Z,1.70
2022-09-02T00:40:24.602Z,1.92
2022-09-02T00:41:29.422Z,1.90
2022-09-02T00:42:31.194Z,2.20
2022-09-02T00:43:44.885Z,1.63
2022-09-02T00:44:47.652Z,1.83
2022-09-02T00:45:49.710Z,1.63
2022-09-02T00:46:51.314Z,1.80
2022-09-02T00:47:55.923Z,1.75
2022-09-02T00:49:17.924Z,1.70
2022-09-02T00:50:24.603Z,1.70
2022-09-02T00:51:32.048Z,1.80
2022-09-02T00:52:42.185Z,2.03
2022-09-02T00:53:46.646Z,1.80
2022-09-02T00:54:59.377Z,1.95
2022-09-02T00:56:01.413Z,1.85
2022-09-02T00:57:10.306Z,1.65
2022-09-02T00:58:20.789Z,1.92
2022-09-02T00:59:32.895Z,1.80
2022-09-02T01:00:39.460Z,1.63
2022-09-02T01:01:41.227Z,1.70
2022-09-02T01:02:46.409Z,1.50
2022-09-02T01:03:48.854Z,1.85
2022-09-02T01:04:50.400Z,1.63
2022-09-02T01:05:53.985Z,1.90
2022-09-02T01:06:56.067Z,1.80
2022-09-02T01:07:58.647Z,1.90
2022-09-02T01:09:09.781Z,1.88
2022-09-02T01:10:16.025Z,1.90
2022-09-02T01:11:19.930Z,1.70
2022-09-02T01:12:22.490Z,2.15
2022-09-02T01:13:28.592Z,1.70
2022-09-02T01:14:31.026Z,1.55
2022-09-02T01:15:39.813Z,1.73
2022-09-02T01:16:45.784Z,1.50
2022-09-02T01:17:51.670Z,1.75
2022-09-02T01:18:57.393Z,1.70
2022-09-02T01:20:04.788Z,1.98
2022-09-02T01:21:06.676Z,1.70
2022-09-02T01:22:19.157Z,1.77
2022-09-02T01:23:21.317Z,1.40
2022-09-02T01:24:28.588Z,2.10
2022-09-02T01:25:33.714Z,1.60
2022-09-02T01:26:35.358Z,1.65
2022-09-02T01:27:37.619Z,1.38
2022-09-02T01:28:39.133Z,2.00
2022-09-02T01:29:40.620Z,1.90
2022-09-02T01:30:47.835Z,1.85
2022-09-02T01:31:49.595Z,1.70
2022-09-02T01:32:51.962Z,1.92
2022-09-02T01:33:55.079Z,2.10
2022-09-02T01:34:56.677Z,1.70
2022-09-02T01:35:58.843Z,1.63
2022-09-02T01:37:00.429Z,2.03
2022-09-02T01:38:02.753Z,1.80
2022-09-02T01:39:04.424Z,1.77
2022-09-02T01:40:09.361Z,1.60
2022-09-02T01:41:11.405Z,1.90
2022-09-02T01:42:13.498Z,1.60
2022-09-02T01:43:18.976Z,1.95
2022-09-02T01:44:20.765Z,2.08
2022-09-02T01:45:22.802Z,2.00
2022-09-02T01:46:24.866Z,1.58
2022-09-02T01:47:27.495Z,1.90
2022-09-02T01:48:29.069Z,1.98
2022-09-02T01:49:30.782Z,2.00
2022-09-02T01:50:45.050Z,1.75
2022-09-02T01:51:48.715Z,1.90
2022-09-02T01:52:50.715Z,1.90
2022-09-02T01:53:52.184Z,1.90
2022-09-02T01:54:54.483Z,2.00
2022-09-02T01:55:56.373Z,1.70
2022-09-02T01:56:58.001Z,2.08
2022-09-02T01:58:00.254Z,1.70
2022-09-02T01:59:02.549Z,1.83
2022-09-02T02:00:08.284Z,2.10
2022-09-02T02:01:11.341Z,1.83
2022-09-02T02:02:14.663Z,1.90
2022-09-02T02:04:18.094Z,1.70
2022-09-02T02:05:19.857Z,2.00
2022-09-02T02:06:21.512Z,1.85
2022-09-02T02:07:25.252Z,1.90
2022-09-02T02:08:26.742Z,1.88
2022-09-02T02:09:28.902Z,1.65
2022-09-02T02:10:31.114Z,2.00
2022-09-02T02:11:32.651Z,2.00
2022-09-02T02:12:34.252Z,2.03
2022-09-02T02:13:36.118Z,2.10
2022-09-02T02:14:38.372Z,2.00
2022-09-02T02:15:42.313Z,1.70
2022-09-02T02:16:43.962Z,1.83
2022-09-02T02:17:46.040Z,2.40
2022-09-02T02:18:47.978Z,2.10
2022-09-02T02:19:49.920Z,2.08
2022-09-02T02:20:51.550Z,2.10
2022-09-02T02:21:53.785Z,1.92
2022-09-02T02:22:55.571Z,2.20
2022-09-02T02:23:57.626Z,2.20
2022-09-02T02:24:59.518Z,2.00
2022-09-02T02:26:01.032Z,1.50
2022-09-02T02:27:02.781Z,1.90
2022-09-02T02:28:05.575Z,2.00
2022-09-02T02:30:10.656Z,2.30
2022-09-02T02:31:12.256Z,1.98
2022-09-02T02:32:14.569Z,1.75
2022-09-02T02:33:16.080Z,2.00
2022-09-02T02:34:18.434Z,1.80
2022-09-02T02:35:20.196Z,2.03
2022-09-02T02:36:21.915Z,2.00
2022-09-02T02:37:25.495Z,1.88
2022-09-02T02:38:27.248Z,1.80
2022-09-02T02:39:29.170Z,2.15
2022-09-02T02:40:31.668Z,2.00
2022-09-02T02:41:34.023Z,2.10
2022-09-02T02:42:36.124Z,1.90
2022-09-02T02:43:37.746Z,2.28
2022-09-02T02:44:40.255Z,1.90
2022-09-02T02:45:41.749Z,1.85
2022-09-02T02:46:44.219Z,1.90
2022-09-02T02:47:48.548Z,2.00
2022-09-02T02:48:50.094Z,2.10
2022-09-02T02:49:51.564Z,2.15
2022-09-02T02:50:53.846Z,13.57
2022-09-02T02:51:55.772Z,20.08
2022-09-02T02:52:57.472Z,19.40
2022-09-02T02:53:59.986Z,8.85
2022-09-02T02:55:01.986Z,16.80
2022-09-02T02:56:04.914Z,24.15
2022-09-02T02:58:09.392Z,5.00
2022-09-02T02:59:10.999Z,2.60
2022-09-02T03:00:17.542Z,2.28
2022-09-02T03:01:19.487Z,2.38
2022-09-02T03:02:21.147Z,1.95
2022-09-02T03:03:23.002Z,2.10
2022-09-02T03:04:25.217Z,2.30
2022-09-02T03:05:27.591Z,2.30
2022-09-02T03:06:30.296Z,2.25
2022-09-02T03:07:31.820Z,2.10
2022-09-02T03:08:36.203Z,2.20
2022-09-02T03:09:37.721Z,2.10
2022-09-02T03:10:41.952Z,2.10
2022-09-02T03:11:43.947Z,2.20
2022-09-02T03:12:48.507Z,2.08
2022-09-02T03:13:51.255Z,1.90
2022-09-02T03:14:52.990Z,2.10
2022-09-02T03:15:54.525Z,1.98
2022-09-02T03:16:56.454Z,2.20
2022-09-02T03:17:58.190Z,2.35
2022-09-02T03:18:59.728Z,2.13
2022-09-02T03:20:01.329Z,2.10
2022-09-02T03:21:08.259Z,2.03
2022-09-02T03:22:11.432Z,2.38
2022-09-02T03:23:13.235Z,1.90
2022-09-02T03:24:14.739Z,2.33
2022-09-02T03:25:20.252Z,1.83
2022-09-02T03:26:23.645Z,2.30
2022-09-02T03:27:25.545Z,2.13
2022-09-02T03:28:27.736Z,2.20
2022-09-02T03:29:29.212Z,2.00
2022-09-02T03:30:33.165Z,2.30
2022-09-02T03:31:35.820Z,2.15
2022-09-02T03:32:37.610Z,2.10
2022-09-02T03:33:39.339Z,2.35
2022-09-02T03:34:41.836Z,2.22
2022-09-02T03:35:45.435Z,2.35
2022-09-02T03:36:47.009Z,2.22
2022-09-02T03:37:50.360Z,2.00
2022-09-02T03:38:51.936Z,2.22
2022-09-02T03:39:53.354Z,2.40
2022-09-02T03:40:55.382Z,1.90
2022-09-02T03:41:57.265Z,2.30
2022-09-02T03:43:00.469Z,2.30
2022-09-02T03:44:02.356Z,2.20
2022-09-02T03:45:07.012Z,2.17
2022-09-02T03:46:09.763Z,2.08
2022-09-02T03:47:13.745Z,2.00
2022-09-02T03:48:15.539Z,2.20
2022-09-02T03:49:17.016Z,2.05
2022-09-02T03:50:30.201Z,2.28
2022-09-02T03:51:31.921Z,2.30
2022-09-02T03:52:33.802Z,2.17
2022-09-02T03:53:35.502Z,2.03
2022-09-02T03:54:36.926Z,2.08
2022-09-02T03:55:39.852Z,2.33
2022-09-02T03:57:43.743Z,2.20
2022-09-02T03:58:47.396Z,2.25
2022-09-02T03:59:48.991Z,2.20
2022-09-02T04:00:52.782Z,2.20
2022-09-02T04:01:54.624Z,2.30
2022-09-02T04:02:56.683Z,2.50
2022-09-02T04:03:58.607Z,2.22
2022-09-02T04:05:00.218Z,2.30
2022-09-02T04:06:02.125Z,2.10
2022-09-02T04:07:04.403Z,2.33
2022-09-02T04:08:05.963Z,2.45
2022-09-02T04:09:07.966Z,2.30
2022-09-02T04:10:10.159Z,2.10
2022-09-02T04:11:16.822Z,2.28
2022-09-02T04:12:18.400Z,2.50
2022-09-02T04:13:19.986Z,2.30
2022-09-02T04:14:21.640Z,2.17
2022-09-02T04:15:23.135Z,2.22
2022-09-02T04:16:29.384Z,2.30
2022-09-02T04:17:30.978Z,2.47
2022-09-02T04:18:32.504Z,2.15
2022-09-02T04:19:34.416Z,2.22
2022-09-02T04:20:39.256Z,2.38
2022-09-02T04:21:42.294Z,2.20
2022-09-02T04:22:44.256Z,2.40
2022-09-02T04:23:46.089Z,2.20
2022-09-02T04:24:47.533Z,2.42
2022-09-02T04:25:49.465Z,2.30
2022-09-02T04:26:51.011Z,2.40
2022-09-02T04:27:52.449Z,2.30
2022-09-02T04:28:54.215Z,2.40
2022-09-02T04:29:56.386Z,2.30
2022-09-02T04:30:58.622Z,2.45
2022-09-02T04:32:00.169Z,2.20
2022-09-02T04:33:01.687Z,2.20
2022-09-02T04:34:03.354Z,2.13
2022-09-02T04:35:05.310Z,2.50
2022-09-02T04:36:09.735Z,2.58
2022-09-02T04:37:14.781Z,2.50
2022-09-02T04:38:16.997Z,2.22
2022-09-02T04:39:19.051Z,2.30
2022-09-02T04:40:21.015Z,2.35
2022-09-02T04:41:25.384Z,2.55
2022-09-02T04:42:27.039Z,2.40
2022-09-02T04:43:28.951Z,2.20
2022-09-02T04:44:30.394Z,2.15
2022-09-02T04:45:31.942Z,2.45
2022-09-02T04:46:34.791Z,2.40
2022-09-02T04:47:37.105Z,2.10
2022-09-02T04:48:40.240Z,2.03
2022-09-02T04:49:42.057Z,2.38
2022-09-02T04:50:43.575Z,2.30
2022-09-02T04:51:45.054Z,2.50
2022-09-02T04:52:46.975Z,2.22
2022-09-02T04:53:50.420Z,2.55
2022-09-02T04:54:52.053Z,2.33
2022-09-02T04:55:57.780Z,2.30
2022-09-02T04:56:59.998Z,2.45
2022-09-02T04:58:01.797Z,1.80
2022-09-02T04:59:03.274Z,2.60
2022-09-02T05:00:06.766Z,2.30
2022-09-02T05:01:10.449Z,2.10
2022-09-02T05:02:12.664Z,2.25
2022-09-02T05:03:14.752Z,2.67
2022-09-02T05:04:16.281Z,2.28
2022-09-02T05:05:17.926Z,2.30
2022-09-02T05:06:27.171Z,2.40
2022-09-02T05:07:28.673Z,2.53
2022-09-02T05:08:34.131Z,1.90
2022-09-02T05:09:36.108Z,2.40
2022-09-02T05:10:39.732Z,2.58
2022-09-02T05:11:41.736Z,2.28
2022-09-02T05:12:43.674Z,2.30
2022-09-02T05:13:49.359Z,2.35
2022-09-02T05:14:51.315Z,1.90
2022-09-02T05:15:53.090Z,1.83
2022-09-02T05:16:54.780Z,2.30
2022-09-02T05:17:56.288Z,2.20
2022-09-02T05:18:59.407Z,2.55
2022-09-02T05:20:01.032Z,2.50
2022-09-02T05:21:06.472Z,2.47
2022-09-02T05:22:08.055Z,2.20
2022-09-02T05:23:11.926Z,2.22
2022-09-02T05:24:13.733Z,2.70
2022-09-02T05:25:15.231Z,2.30
2022-09-02T05:26:17.776Z,2.80
2022-09-02T05:27:20.445Z,2.30
2022-09-02T05:28:22.748Z,2.70
2022-09-02T05:29:24.594Z,2.22
2022-09-02T05:30:26.028Z,2.28
2022-09-02T05:31:29.001Z,2.50
2022-09-02T05:32:34.431Z,2.60
2022-09-02T05:33:41.199Z,1.90
2022-09-02T05:34:43.002Z,2.53
2022-09-02T05:35:45.856Z,2.22
2022-09-02T05:36:48.504Z,2.65
2022-09-02T05:37:50.328Z,2.40
2022-09-02T05:38:52.052Z,2.40
2022-09-02T05:39:53.603Z,2.35
2022-09-02T05:40:56.086Z,2.40
2022-09-02T05:41:58.314Z,2.30
2022-09-02T05:42:59.949Z,2.38
2022-09-02T05:44:04.085Z,2.78
2022-09-02T05:45:07.170Z,2.30
2022-09-02T05:46:11.128Z,2.40
2022-09-02T05:47:13.251Z,2.40
2022-09-02T05:48:38.373Z,2.30
2022-09-02T05:49:41.044Z,2.38
2022-09-02T05:50:42.537Z,2.78
2022-09-02T05:51:53.355Z,2.63
2022-09-02T05:52:54.814Z,2.60
2022-09-02T05:53:58.563Z,2.22
2022-09-02T05:55:00.590Z,2.30
2022-09-02T05:56:05.078Z,2.70
2022-09-02T05:57:13.656Z,2.50
2022-09-02T05:58:15.124Z,2.38
2022-09-02T05:59:18.176Z,2.45
2022-09-02T06:00:19.687Z,2.30
2022-09-02T06:01:21.280Z,2.40
2022-09-02T06:02:25.337Z,2.63
2022-09-02T06:03:26.914Z,2.03
2022-09-02T06:04:28.997Z,2.78
2022-09-02T06:05:30.894Z,2.30
2022-09-02T06:06:33.767Z,2.40
2022-09-02T06:08:39.548Z,2.53
2022-09-02T06:09:44.732Z,2.55
2022-09-02T06:10:46.303Z,2.63
2022-09-02T06:11:52.058Z,2.30
2022-09-02T06:12:53.548Z,2.25
2022-09-02T06:13:55.475Z,2.20
2022-09-02T06:14:56.921Z,2.00
2022-09-02T06:15:58.407Z,2.40
2022-09-02T06:17:00.318Z,2.10
2022-09-02T06:18:01.894Z,2.17
2022-09-02T06:19:04.702Z,2.08
2022-09-02T06:20:06.623Z,1.98
2022-09-02T06:21:08.179Z,1.80
2022-09-02T06:22:10.070Z,2.10
2022-09-02T06:23:14.860Z,1.52
2022-09-02T06:24:17.003Z,2.00
2022-09-02T06:25:20.909Z,2.33
2022-09-02T06:26:22.570Z,1.92
2022-09-02T06:27:24.435Z,2.25
2022-09-02T06:28:25.894Z,2.00
2022-09-02T06:29:27.661Z,2.00
2022-09-02T06:30:29.234Z,2.22
2022-09-02T06:31:34.640Z,2.20
2022-09-02T06:32:36.889Z,1.75
2022-09-02T06:33:38.805Z,2.17
2022-09-02T06:34:40.385Z,1.90
2022-09-02T06:35:45.514Z,1.98
2022-09-02T06:36:49.257Z,2.00
2022-09-02T06:37:51.267Z,2.08
2022-09-02T06:38:54.406Z,2.08
2022-09-02T06:39:55.930Z,2.17
2022-09-02T06:40:59.124Z,2.15
2022-09-02T06:42:01.359Z,2.00
2022-09-02T06:43:03.213Z,1.50
2022-09-02T06:44:07.097Z,2.00
2022-09-02T06:45:09.218Z,1.95
2022-09-02T06:46:19.861Z,2.00
2022-09-02T06:47:21.737Z,2.20
2022-09-02T06:48:23.273Z,2.08
2022-09-02T06:49:26.380Z,2.00
2022-09-02T06:50:27.883Z,1.98
2022-09-02T06:51:36.547Z,2.00
2022-09-02T06:52:39.314Z,1.83
2022-09-02T06:53:40.775Z,1.70
2022-09-02T06:54:42.322Z,2.10
2022-09-02T06:55:45.707Z,2.17
2022-09-02T06:56:49.889Z,1.90
2022-09-02T06:57:51.429Z,1.88
2022-09-02T06:58:53.355Z,1.90
2022-09-02T07:00:01.917Z,2.00
2022-09-02T07:02:06.401Z,1.77
2022-09-02T07:03:28.068Z,2.00
2022-09-02T07:04:47.998Z,1.70
2022-09-02T07:06:03.798Z,2.55
2022-09-02T07:07:07.950Z,1.77
2022-09-02T07:08:09.586Z,2.30
2022-09-02T07:09:13.585Z,2.22
2022-09-02T07:10:16.016Z,1.80
2022-09-02T07:11:21.246Z,1.60
2022-09-02T07:12:23.282Z,1.83
2022-09-02T07:13:25.983Z,2.00
2022-09-02T07:14:30.172Z,1.75
2022-09-02T07:15:31.845Z,2.00
2022-09-02T07:16:42.870Z,1.92
2022-09-02T07:17:44.990Z,1.80
2022-09-02T07:18:46.564Z,1.77
2022-09-02T07:19:49.510Z,1.73
2022-09-02T07:21:53.573Z,1.80
2022-09-02T07:22:56.317Z,1.50
2022-09-02T07:23:59.681Z,1.98
2022-09-02T07:25:01.178Z,2.22
2022-09-02T07:26:02.865Z,2.00
2022-09-02T07:27:06.248Z,1.70
2022-09-02T07:28:09.462Z,1.70
2022-09-02T07:29:11.381Z,1.73
2022-09-02T07:30:14.071Z,1.70
2022-09-02T07:31:17.795Z,1.80
2022-09-02T07:32:19.666Z,1.60
2022-09-02T07:33:22.926Z,1.65
2022-09-02T07:34:24.835Z,2.15
2022-09-02T07:35:26.477Z,1.88
2022-09-02T07:36:28.858Z,1.70
2022-09-02T07:37:30.309Z,1.75
2022-09-02T07:38:32.943Z,1.50
2022-09-02T07:39:34.599Z,1.55
2022-09-02T07:40:37.373Z,1.50
2022-09-02T07:42:41.217Z,1.52
2022-09-02T07:43:43.237Z,1.60
2022-09-02T07:44:45.070Z,1.70
2022-09-02T07:45:47.063Z,1.90
2022-09-02T07:46:48.895Z,1.60
2022-09-02T07:47:50.571Z,1.50
2022-09-02T07:48:53.641Z,1.63
2022-09-02T07:51:18.629Z,2.55
2022-09-02T07:52:20.392Z,1.90
2022-09-02T07:53:22.493Z,1.90
2022-09-02T07:54:26.736Z,1.60
2022-09-02T07:55:30.953Z,1.70
2022-09-02T07:56:33.593Z,1.40
2022-09-02T07:57:35.400Z,1.77
2022-09-02T07:58:37.066Z,1.60
2022-09-02T07:59:38.655Z,1.90
2022-09-02T08:00:41.786Z,1.70
2022-09-02T08:01:44.179Z,1.70
2022-09-02T08:02:46.292Z,1.88
2022-09-02T08:03:48.753Z,1.60
2022-09-02T08:04:50.616Z,1.52
2022-09-02T08:05:52.480Z,1.50
2022-09-02T08:06:54.973Z,1.65
2022-09-02T08:07:56.421Z,1.60
2022-09-02T08:08:57.999Z,1.80
2022-09-02T08:10:01.051Z,2.30
2022-09-02T08:11:03.741Z,1.80
2022-09-02T08:12:07.069Z,1.70
2022-09-02T08:13:10.064Z,1.50
2022-09-02T08:14:14.453Z,1.73
2022-09-02T08:15:20.159Z,1.60
2022-09-02T08:16:23.543Z,1.50
2022-09-02T08:17:25.901Z,1.58
2022-09-02T08:18:27.330Z,1.42
2022-09-02T08:19:28.784Z,1.90
2022-09-02T08:20:33.223Z,1.67
2022-09-02T08:21:35.338Z,1.67
2022-09-02T08:22:37.209Z,1.73
2022-09-02T08:23:39.586Z,2.00
2022-09-02T08:24:41.201Z,1.60
2022-09-02T08:25:43.272Z,1.52
2022-09-02T08:26:45.095Z,1.70
2022-09-02T08:27:46.641Z,1.77
2022-09-02T08:28:48.136Z,1.40
2022-09-02T08:29:49.610Z,1.50
2022-09-02T08:30:52.447Z,1.40
2022-09-02T08:31:54.470Z,1.60
2022-09-02T08:32:56.920Z,1.63
2022-09-02T08:33:59.785Z,1.55
2022-09-02T08:35:02.965Z,1.35
2022-09-02T08:36:06.446Z,1.42
2022-09-02T08:37:08.554Z,1.80
2022-09-02T08:38:10.140Z,1.55
2022-09-02T08:39:11.902Z,1.65
2022-09-02T08:40:18.767Z,1.40
2022-09-02T08:41:22.747Z,1.60
2022-09-02T08:42:33.479Z,1.60
2022-09-02T08:43:42.857Z,1.60
2022-09-02T08:44:45.220Z,1.60
2022-09-02T08:45:49.482Z,1.75
2022-09-02T08:46:54.783Z,1.83
2022-09-02T08:48:08.214Z,2.05
2022-09-02T08:49:44.274Z,1.85
2022-09-02T08:50:48.384Z,1.60
2022-09-02T08:51:58.192Z,1.90
2022-09-02T08:53:32.420Z,1.60
2022-09-02T08:54:42.567Z,1.77
2022-09-02T08:55:54.118Z,1.70
2022-09-02T08:56:56.574Z,1.60
2022-09-02T08:57:58.647Z,1.60
2022-09-02T08:59:03.771Z,1.48
2022-09-02T09:00:07.441Z,1.67
2022-09-02T09:01:24.403Z,1.38
2022-09-02T09:02:56.820Z,1.90
2022-09-02T09:04:18.741Z,1.60
2022-09-02T09:05:47.745Z,1.67
2022-09-02T09:06:55.335Z,1.88
2022-09-02T09:08:44.743Z,1.50
2022-09-02T09:10:11.496Z,1.40
2022-09-02T09:11:33.332Z,1.40
2022-09-02T09:12:53.925Z,1.40
2022-09-02T09:14:20.520Z,1.40
2022-09-02T09:15:37.094Z,1.40
2022-09-02T09:16:42.964Z,1.60
2022-09-02T09:17:49.376Z,1.40
2022-09-02T09:18:50.869Z,1.48
2022-09-02T09:19:55.185Z,1.40
2022-09-02T09:20:56.686Z,1.38
2022-09-02T09:22:01.291Z,1.58
2022-09-02T09:23:14.277Z,1.30
2022-09-02T09:24:46.464Z,1.42
2022-09-02T09:25:49.438Z,1.42
2022-09-02T09:26:51.240Z,1.58
2022-09-02T09:27:53.048Z,1.50
2022-09-02T09:28:55.955Z,1.40
2022-09-02T09:29:57.424Z,1.40
2022-09-02T09:31:01.736Z,1.50
2022-09-02T09:32:06.648Z,1.55
2022-09-02T09:33:09.649Z,1.50
2022-09-02T09:34:14.570Z,1.50
2022-09-02T09:35:17.679Z,1.48
2022-09-02T09:36:19.532Z,1.60
2022-09-02T09:37:35.887Z,1.50
2022-09-02T09:38:38.631Z,1.45
2022-09-02T09:39:40.267Z,1.60
2022-09-02T09:40:42.015Z,1.50
2022-09-02T09:41:45.693Z,1.40
2022-09-02T09:43:07.031Z,1.92
2022-09-02T09:44:38.803Z,1.48
2022-09-02T09:45:40.638Z,1.35
2022-09-02T09:46:42.202Z,1.20
2022-09-02T09:47:43.826Z,1.30
2022-09-02T09:48:50.506Z,1.20
2022-09-02T09:50:09.561Z,1.42
2022-09-02T09:51:13.668Z,1.45
2022-09-02T09:52:26.793Z,1.42
2022-09-02T09:53:34.503Z,1.35
2022-09-02T09:54:36.017Z,1.55
2022-09-02T09:55:51.299Z,1.60
2022-09-02T09:56:55.170Z,1.30
2022-09-02T09:58:09.150Z,1.40
2022-09-02T09:59:56.426Z,1.38
2022-09-02T10:01:00.724Z,1.40
2022-09-02T10:02:02.670Z,1.50
2022-09-02T10:03:08.551Z,1.20
2022-09-02T10:04:43.169Z,1.30
2022-09-02T10:05:45.350Z,1.23
2022-09-02T10:06:48.403Z,1.48
2022-09-02T10:07:59.365Z,1.30
2022-09-02T10:09:04.435Z,1.30
2022-09-02T10:10:17.939Z,1.33
2022-09-02T10:11:24.925Z,1.27
2022-09-02T10:12:33.762Z,1.30
2022-09-02T10:13:37.856Z,1.48
2022-09-02T10:14:44.209Z,1.30
2022-09-02T10:16:24.970Z,1.45
2022-09-02T10:17:42.841Z,1.50
2022-09-02T10:18:56.077Z,1.17
2022-09-02T10:20:23.014Z,2.72
2022-09-02T10:22:02.274Z,1.60
2022-09-02T10:23:18.180Z,1.38
2022-09-02T10:24:52.055Z,1.30
2022-09-02T10:26:06.349Z,1.40
2022-09-02T10:27:15.177Z,1.08
2022-09-02T10:28:22.616Z,1.27
2022-09-02T10:29:33.423Z,1.30
2022-09-02T10:30:51.908Z,1.40
2022-09-02T10:32:17.506Z,1.15
2022-09-02T10:33:34.146Z,1.25
2022-09-02T10:34:51.051Z,1.05
2022-09-02T10:35:57.155Z,1.20
2022-09-02T10:37:23.339Z,1.20
2022-09-02T10:38:42.083Z,1.35
2022-09-02T10:40:10.227Z,1.40
2022-09-02T10:41:27.111Z,1.30
2022-09-02T10:42:47.076Z,1.35
2022-09-02T10:43:57.437Z,1.30
2022-09-02T10:45:05.216Z,1.40
2022-09-02T10:46:10.636Z,1.40
2022-09-02T10:47:36.289Z,1.40
2022-09-02T10:48:40.753Z,1.30
2022-09-02T10:50:17.704Z,1.35
2022-09-02T10:51:37.407Z,1.40
2022-09-02T10:52:45.346Z,1.40
2022-09-02T10:54:05.951Z,1.30
2022-09-02T10:55:44.973Z,1.30
2022-09-02T10:56:50.477Z,1.42
2022-09-02T10:58:00.339Z,1.40
2022-09-02T10:59:17.142Z,1.40
2022-09-02T11:00:20.853Z,1.40
2022-09-02T11:01:40.854Z,1.50
2022-09-02T11:02:50.278Z,1.30
2022-09-02T11:04:12.829Z,1.70
2022-09-02T11:05:25.811Z,1.40
2022-09-02T11:06:40.427Z,1.70
2022-09-02T11:08:09.746Z,1.55
2022-09-02T11:09:27.736Z,1.30
2022-09-02T11:10:43.430Z,1.45
2022-09-02T11:12:00.954Z,1.50
2022-09-02T11:13:14.576Z,1.42
2022-09-02T11:14:27.836Z,1.40
2022-09-02T11:16:02.454Z,1.40
2022-09-02T11:17:31.027Z,1.52
2022-09-02T11:18:42.803Z,1.45
2022-09-02T11:20:13.091Z,1.73
2022-09-02T11:21:59.334Z,1.20
2022-09-02T11:23:19.545Z,1.45
2022-09-02T11:24:35.719Z,1.40
2022-09-02T11:26:09.675Z,1.80
2022-09-02T11:27:42.899Z,1.77
2022-09-02T11:28:55.477Z,1.60
2022-09-02T11:30:04.822Z,1.92
2022-09-02T11:31:30.186Z,1.80
2022-09-02T11:32:54.664Z,1.70
2022-09-02T11:35:20.814Z,1.33
2022-09-02T11:36:22.428Z,1.65
2022-09-02T11:37:30.021Z,1.70
2022-09-02T11:38:39.447Z,1.50
2022-09-02T11:39:58.955Z,1.42
2022-09-02T11:42:56.793Z,1.40
2022-09-02T11:44:16.533Z,1.35
2022-09-02T11:45:22.183Z,1.40
2022-09-02T11:47:08.376Z,1.50
2022-09-02T11:48:41.397Z,1.27
2022-09-02T11:50:16.471Z,1.55
2022-09-02T11:51:26.708Z,1.50
2022-09-02T11:52:48.571Z,1.40
2022-09-02T11:53:54.886Z,1.40
2022-09-02T11:55:14.800Z,1.50
2022-09-02T11:56:20.011Z,1.48
2022-09-02T11:57:26.017Z,1.63
2022-09-02T11:58:38.990Z,1.17
2022-09-02T11:59:52.452Z,1.48
2022-09-02T12:00:58.484Z,1.55
2022-09-02T12:02:00.732Z,1.30
2022-09-02T12:03:16.704Z,1.40
2022-09-02T12:06:06.653Z,1.67
2022-09-02T12:07:09.937Z,1.45
2022-09-02T12:08:36.687Z,1.65
2022-09-02T12:09:55.407Z,1.20
2022-09-02T12:10:59.996Z,1.40
2022-09-02T12:12:01.894Z,1.50
2022-09-02T12:13:03.947Z,1.60
2022-09-02T12:14:31.783Z,1.50
2022-09-02T12:15:37.167Z,1.50
2022-09-02T12:17:05.362Z,1.40
2022-09-02T12:18:15.874Z,1.40
2022-09-02T12:19:27.770Z,1.40
2022-09-02T12:20:41.712Z,1.50
2022-09-02T12:22:17.275Z,1.30
2022-09-02T12:23:50.066Z,1.40
2022-09-02T12:24:59.501Z,1.30
2022-09-02T12:26:06.906Z,1.65
2022-09-02T12:27:09.751Z,1.40
2022-09-02T12:29:24.656Z,1.45
2022-09-02T12:31:08.994Z,1.20
2022-09-02T12:32:10.523Z,1.20
2022-09-02T12:33:13.479Z,1.20
2022-09-02T12:34:20.838Z,1.30
2022-09-02T12:35:50.838Z,1.33
2022-09-02T12:37:02.877Z,1.30
2022-09-02T12:38:10.398Z,1.23
2022-09-02T12:39:30.736Z,1.23
2022-09-02T12:40:37.506Z,1.20
2022-09-02T12:41:43.356Z,1.35
2022-09-02T12:42:48.241Z,1.17
2022-09-02T12:43:57.765Z,1.00
2022-09-02T12:45:13.572Z,1.20
2022-09-02T12:46:28.867Z,1.60
2022-09-02T12:47:49.138Z,1.27
2022-09-02T12:49:05.711Z,1.30
2022-09-02T12:50:12.504Z,1.30
2022-09-02T12:51:55.208Z,1.40
2022-09-02T12:53:18.047Z,1.30
2022-09-02T12:54:49.011Z,1.30
2022-09-02T12:55:57.947Z,1.20
2022-09-02T12:58:20.156Z,10.30
2022-09-02T12:59:38.204Z,1.25
2022-09-02T13:00:46.414Z,4.55
2022-09-02T13:01:59.506Z,1.27
2022-09-02T13:03:26.929Z,1.60
2022-09-02T13:05:06.567Z,1.50
2022-09-02T13:06:29.870Z,1.50
2022-09-02T13:08:02.512Z,1.50
2022-09-02T13:09:35.783Z,1.40
2022-09-02T13:10:54.412Z,2.00
2022-09-02T13:12:41.915Z,1.20
2022-09-02T13:14:15.266Z,1.85
2022-09-02T13:16:39.967Z,1.50
2022-09-02T13:18:10.057Z,1.30
2022-09-02T13:19:29.114Z,1.30
2022-09-02T13:20:59.831Z,1.27
2022-09-02T13:22:16.519Z,1.20
2022-09-02T13:23:36.297Z,1.15
2022-09-02T13:25:21.147Z,1.20
2022-09-02T13:26:48.850Z,1.20
2022-09-02T13:28:17.863Z,1.02
2022-09-02T13:29:41.905Z,1.00
2022-09-02T13:31:03.414Z,1.30
2022-09-02T13:32:10.454Z,1.20
2022-09-02T13:33:12.472Z,1.35
2022-09-02T13:34:14.663Z,1.05
2022-09-02T13:35:24.113Z,1.20
2022-09-02T13:36:36.818Z,1.30
2022-09-02T13:37:43.557Z,1.45
2022-09-02T13:38:47.414Z,1.40
2022-09-02T13:39:48.899Z,1.90
2022-09-02T13:40:50.488Z,1.52
2022-09-02T13:41:52.412Z,1.10
2022-09-02T13:42:58.966Z,1.10
2022-09-02T13:44:21.293Z,1.10
2022-09-02T13:45:25.347Z,1.27
2022-09-02T13:46:26.852Z,1.20
2022-09-02T13:47:28.343Z,1.10
2022-09-02T13:48:33.259Z,1.23
2022-09-02T13:49:41.769Z,0.98
2022-09-02T13:50:45.904Z,0.88
2022-09-02T13:51:48.867Z,1.67
2022-09-02T13:53:54.003Z,3.55
2022-09-02T13:54:37.865Z,1.75
2022-09-02T13:55:46.853Z,3.47
2022-09-02T13:56:49.134Z,1.50
2022-09-02T13:58:00.839Z,1.20
2022-09-02T13:59:02.833Z,1.17
2022-09-02T14:00:06.861Z,1.20
2022-09-02T14:01:29.980Z,1.17
2022-09-02T14:02:35.749Z,0.90
2022-09-02T14:03:39.126Z,1.30
2022-09-02T14:04:40.798Z,1.35
2022-09-02T14:05:47.632Z,1.50
2022-09-02T14:06:50.076Z,1.13
2022-09-02T14:07:55.044Z,1.20
2022-09-02T14:09:02.027Z,1.20
2022-09-02T14:10:07.720Z,1.35
2022-09-02T14:11:13.821Z,1.40
2022-09-02T14:12:17.940Z,1.20
2022-09-02T14:13:20.830Z,1.20
2022-09-02T14:14:24.534Z,1.30
2022-09-02T14:15:31.598Z,1.20
2022-09-02T14:16:35.985Z,1.23
2022-09-02T14:17:37.898Z,1.10
2022-09-02T14:18:39.359Z,1.30
2022-09-02T14:19:40.785Z,1.20
2022-09-02T14:20:56.601Z,1.20
2022-09-02T14:21:58.810Z,1.20
2022-09-02T14:23:01.079Z,1.30
2022-09-02T14:24:03.978Z,1.20
2022-09-02T14:25:09.880Z,1.00
2022-09-02T14:26:11.349Z,1.40
2022-09-02T14:27:22.537Z,1.20
2022-09-02T14:28:32.702Z,1.50
2022-09-02T14:29:34.184Z,1.20
2022-09-02T14:30:41.504Z,1.25
2022-09-02T14:31:43.659Z,1.08
2022-09-02T14:32:45.611Z,1.23
2022-09-02T14:33:47.726Z,1.50
2022-09-02T14:35:08.308Z,1.83
2022-09-02T14:36:17.840Z,1.40
2022-09-02T14:37:24.400Z,1.50
2022-09-02T14:38:27.811Z,1.33
2022-09-02T14:39:29.922Z,1.38
2022-09-02T14:40:39.743Z,1.00
2022-09-02T14:41:50.370Z,1.25
2022-09-02T14:42:57.807Z,2.53
2022-09-02T14:44:11.803Z,12.10
2022-09-02T14:45:14.486Z,3.00
2022-09-02T14:46:28.219Z,1.70
2022-09-02T14:47:29.925Z,2.15
2022-09-02T14:48:37.860Z,1.45
2022-09-02T14:49:47.313Z,1.50
2022-09-02T14:50:50.231Z,1.42
2022-09-02T14:51:58.525Z,1.30
2022-09-02T14:53:05.653Z,1.33
2022-09-02T14:54:07.925Z,1.05
2022-09-02T14:55:37.160Z,1.17
2022-09-02T14:56:51.837Z,1.30
2022-09-02T14:58:02.780Z,1.25
2022-09-02T14:59:04.807Z,1.40
2022-09-02T15:00:14.463Z,1.30
2022-09-02T15:01:16.054Z,1.35
2022-09-02T15:02:26.159Z,1.40
2022-09-02T15:03:29.647Z,1.30
2022-09-02T15:04:35.563Z,1.30
2022-09-02T15:05:37.512Z,1.40
2022-09-02T15:06:38.961Z,1.30
2022-09-02T15:07:40.814Z,1.40
2022-09-02T15:08:42.350Z,1.40
2022-09-02T15:09:46.471Z,1.40
2022-09-02T15:10:49.262Z,2.38